createdAt,value
2023-02-02T00:01:20.239Z,2.37
2023-02-02T00:03:50.674Z,1.90
2023-02-02T00:06:18.719Z,1.90
2023-02-02T00:08:48.411Z,2.57
2023-02-02T00:11:16.629Z,2.47
2023-02-02T00:13:44.542Z,2.87
2023-02-02T00:16:38.740Z,2.00
2023-02-02T00:19:08.306Z,2.03
2023-02-02T00:21:36.167Z,3.40
2023-02-02T00:24:05.486Z,2.63
2023-02-02T00:26:33.144Z,4.00
2023-02-02T00:29:01.341Z,1.83
2023-02-02T00:31:29.097Z,2.43
2023-02-02T00:33:57.064Z,1.90
2023-02-02T00:36:25.015Z,2.60
2023-02-02T00:38:53.327Z,2.40
2023-02-02T00:41:22.507Z,1.90
2023-02-02T00:44:10.343Z,1.90
2023-02-02T00:46:39.659Z,2.30
2023-02-02T00:49:07.321Z,2.70
2023-02-02T00:51:35.068Z,3.90
2023-02-02T00:54:02.766Z,2.87
2023-02-02T00:56:32.092Z,2.00
2023-02-02T00:58:59.761Z,3.13
2023-02-02T01:01:27.636Z,3.53
2023-02-02T01:03:56.209Z,2.40
2023-02-02T01:06:24.165Z,2.00
2023-02-02T01:08:51.770Z,3.13
2023-02-02T01:11:19.809Z,3.50
2023-02-02T01:13:48.808Z,1.87
2023-02-02T01:16:16.414Z,2.37
2023-02-02T01:18:44.554Z,3.40
2023-02-02T01:21:13.729Z,2.10
2023-02-02T01:23:41.410Z,1.70
2023-02-02T01:26:11.218Z,2.60
2023-02-02T01:28:39.103Z,2.50
2023-02-02T01:31:10.931Z,2.57
2023-02-02T01:33:38.702Z,1.90
2023-02-02T01:36:08.233Z,2.23
2023-02-02T01:38:36.063Z,2.33
2023-02-02T01:41:04.943Z,1.93
2023-02-02T01:43:52.912Z,2.37
2023-02-02T01:46:23.810Z,2.13
2023-02-02T01:48:56.915Z,1.97
2023-02-02T01:51:30.532Z,2.50
2023-02-02T01:54:00.187Z,2.30
2023-02-02T01:56:31.289Z,2.90
2023-02-02T01:59:00.693Z,2.10
2023-02-02T02:01:29.775Z,2.17
2023-02-02T02:03:58.088Z,3.23
2023-02-02T02:06:27.563Z,3.50
2023-02-02T02:09:00.288Z,2.43
2023-02-02T02:11:28.526Z,2.33
2023-02-02T02:14:15.513Z,3.03
2023-02-02T02:16:57.245Z,1.60
2023-02-02T02:20:17.964Z,1.73
2023-02-02T02:23:30.812Z,1.83
2023-02-02T02:26:34.812Z,2.03
2023-02-02T02:29:19.304Z,1.53
2023-02-02T02:32:05.554Z,1.70
2023-02-02T02:34:44.859Z,2.83
2023-02-02T02:37:22.986Z,1.97
2023-02-02T02:39:56.784Z,2.50
2023-02-02T02:42:28.414Z,1.87
2023-02-02T02:44:57.217Z,2.37
2023-02-02T02:47:26.797Z,2.73
2023-02-02T02:49:54.355Z,2.57
2023-02-02T02:52:21.888Z,3.20
2023-02-02T02:54:51.667Z,2.20
2023-02-02T02:57:35.224Z,2.30
2023-02-02T03:00:16.375Z,2.17
2023-02-02T03:02:50.776Z,2.00
2023-02-02T03:05:31.175Z,1.87
2023-02-02T03:08:07.333Z,2.20
2023-02-02T03:10:37.051Z,1.93
2023-02-02T03:13:09.373Z,2.40
2023-02-02T03:15:37.093Z,2.10
2023-02-02T03:18:06.146Z,2.33
2023-02-02T03:20:33.665Z,5.10
2023-02-02T03:23:01.315Z,2.00
2023-02-02T03:25:29.121Z,1.87
2023-02-02T03:27:56.851Z,2.00
2023-02-02T03:30:24.462Z,2.00
2023-02-02T03:32:53.352Z,2.07
2023-02-02T03:35:22.372Z,2.47
2023-02-02T03:37:50.173Z,2.30
2023-02-02T03:40:18.055Z,1.60
2023-02-02T03:42:45.549Z,1.47
2023-02-02T03:45:13.386Z,2.40
2023-02-02T03:47:40.869Z,2.27
2023-02-02T03:50:10.111Z,2.53
2023-02-02T03:52:38.958Z,2.67
2023-02-02T03:55:07.569Z,2.00
2023-02-02T03:57:35.075Z,3.40
2023-02-02T04:00:02.850Z,1.80
2023-02-02T04:02:39.631Z,2.33
2023-02-02T04:05:07.418Z,1.80
2023-02-02T04:07:34.892Z,1.60
2023-02-02T04:10:03.699Z,2.00
2023-02-02T04:12:31.186Z,2.90
2023-02-02T04:14:58.633Z,1.70
2023-02-02T04:17:26.130Z,2.27
2023-02-02T04:19:58.018Z,1.97
2023-02-02T04:22:25.566Z,2.10
2023-02-02T04:24:53.138Z,1.70
2023-02-02T04:27:21.940Z,2.10
2023-02-02T04:29:49.396Z,1.83
2023-02-02T04:32:17.861Z,2.83
2023-02-02T04:34:45.652Z,1.57
2023-02-02T04:37:13.461Z,2.17
2023-02-02T04:39:40.893Z,1.90
2023-02-02T04:42:08.340Z,2.30
2023-02-02T04:44:37.111Z,2.17
2023-02-02T04:47:04.713Z,2.10
2023-02-02T04:49:32.186Z,2.57
2023-02-02T04:51:59.668Z,1.90
2023-02-02T04:54:27.149Z,1.97
2023-02-02T04:56:54.633Z,2.77
2023-02-02T04:59:22.136Z,2.27
2023-02-02T05:01:51.145Z,2.43
2023-02-02T05:04:18.698Z,2.10
2023-02-02T05:06:46.155Z,2.20
2023-02-02T05:09:14.925Z,2.50
2023-02-02T05:11:44.375Z,2.30
2023-02-02T05:14:12.255Z,2.40
2023-02-02T05:16:40.171Z,2.20
2023-02-02T05:19:09.263Z,2.30
2023-02-02T05:21:36.759Z,3.23
2023-02-02T05:24:04.805Z,3.30
2023-02-02T05:26:32.282Z,4.27
2023-02-02T05:28:59.744Z,2.77
2023-02-02T05:31:27.313Z,1.50
2023-02-02T05:33:54.801Z,3.33
2023-02-02T05:36:23.584Z,3.70
2023-02-02T05:38:51.018Z,2.07
2023-02-02T05:41:18.566Z,2.20
2023-02-02T05:43:46.169Z,2.27
2023-02-02T05:46:14.039Z,2.07
2023-02-02T05:48:41.937Z,3.07
2023-02-02T05:51:13.522Z,4.00
2023-02-02T05:53:44.895Z,1.30
2023-02-02T05:56:13.084Z,1.80
2023-02-02T05:58:40.549Z,3.10
2023-02-02T06:01:08.510Z,2.07
2023-02-02T06:03:36.140Z,3.73
2023-02-02T06:06:06.602Z,2.50
2023-02-02T06:08:34.525Z,3.20
2023-02-02T06:11:11.076Z,1.90
2023-02-02T06:13:39.758Z,3.43
2023-02-02T06:16:08.455Z,1.77
2023-02-02T06:18:36.641Z,3.30
2023-02-02T06:21:06.692Z,2.03
2023-02-02T06:23:35.379Z,2.40
2023-02-02T06:26:04.299Z,3.10
2023-02-02T06:28:33.220Z,1.57
2023-02-02T06:31:05.459Z,3.17
2023-02-02T06:33:33.106Z,1.73
2023-02-02T06:36:01.909Z,1.90
2023-02-02T06:38:29.912Z,3.20
2023-02-02T06:41:00.268Z,2.33
2023-02-02T06:43:28.057Z,2.60
2023-02-02T06:45:58.236Z,2.17
2023-02-02T06:48:26.022Z,2.30
2023-02-02T06:50:53.961Z,2.07
2023-02-02T06:53:22.989Z,2.57
2023-02-02T06:55:54.291Z,3.27
2023-02-02T06:58:21.856Z,3.87
2023-02-02T07:00:49.533Z,3.43
2023-02-02T07:03:18.707Z,2.87
2023-02-02T07:05:46.220Z,2.50
2023-02-02T07:08:13.977Z,2.70
2023-02-02T07:11:13.546Z,4.20
2023-02-02T07:13:30.329Z,2.97
2023-02-02T07:15:58.252Z,3.40
2023-02-02T07:18:27.328Z,3.27
2023-02-02T07:20:54.785Z,3.00
2023-02-02T07:23:22.229Z,2.53
2023-02-02T07:25:49.785Z,2.23
2023-02-02T07:28:17.265Z,2.17
2023-02-02T07:30:44.784Z,2.37
2023-02-02T07:33:12.713Z,2.50
2023-02-02T07:35:41.489Z,1.70
2023-02-02T07:38:08.939Z,2.70
2023-02-02T07:40:36.410Z,3.60
2023-02-02T07:43:04.835Z,2.70
2023-02-02T07:45:32.405Z,3.07
2023-02-02T07:48:01.337Z,3.10
2023-02-02T07:50:31.155Z,2.73
2023-02-02T07:53:01.021Z,3.17
2023-02-02T07:55:29.065Z,2.33
2023-02-02T07:57:59.237Z,3.40
2023-02-02T08:00:27.466Z,2.43
2023-02-02T08:02:55.022Z,3.10
2023-02-02T08:05:22.842Z,3.13
2023-02-02T08:07:50.600Z,2.70
2023-02-02T08:10:19.521Z,2.20
2023-02-02T08:12:46.967Z,3.43
2023-02-02T08:15:14.451Z,2.30
2023-02-02T08:17:46.591Z,3.10
2023-02-02T08:20:14.680Z,3.90
2023-02-02T08:22:42.299Z,3.13
2023-02-02T08:25:10.426Z,3.33
2023-02-02T08:27:39.226Z,2.97
2023-02-02T08:30:07.560Z,3.50
2023-02-02T08:32:35.403Z,3.33
2023-02-02T08:35:02.852Z,3.37
2023-02-02T08:37:30.424Z,3.37
2023-02-02T08:39:58.699Z,2.17
2023-02-02T08:42:26.181Z,3.60
2023-02-02T08:46:03.434Z,2.70
2023-02-02T08:47:42.351Z,2.90
2023-02-02T08:50:11.192Z,2.70
2023-02-02T08:52:38.712Z,3.23
2023-02-02T08:55:07.073Z,2.97
2023-02-02T08:57:34.621Z,3.30
2023-02-02T09:00:04.403Z,2.10
2023-02-02T09:02:31.957Z,3.33
2023-02-02T09:04:59.480Z,3.30
2023-02-02T09:07:26.938Z,2.30
2023-02-02T09:09:55.703Z,2.83
2023-02-02T09:12:23.138Z,3.03
2023-02-02T09:14:50.640Z,2.80
2023-02-02T09:17:19.862Z,2.60
2023-02-02T09:19:47.353Z,2.50
2023-02-02T09:22:14.839Z,2.73
2023-02-02T09:24:42.314Z,2.60
2023-02-02T09:27:09.784Z,2.33
2023-02-02T09:29:37.221Z,3.20
2023-02-02T09:32:04.985Z,2.73
2023-02-02T09:34:33.785Z,2.57
2023-02-02T09:37:01.257Z,1.87
2023-02-02T09:39:28.799Z,1.57
2023-02-02T09:42:21.596Z,3.03
2023-02-02T09:45:00.535Z,4.40
2023-02-02T09:47:38.837Z,3.20
2023-02-02T09:50:16.425Z,3.00
2023-02-02T09:52:47.356Z,2.00
2023-02-02T09:55:20.879Z,2.27
2023-02-02T09:57:53.661Z,2.60
2023-02-02T10:00:28.581Z,2.77
2023-02-02T10:03:00.694Z,1.63
2023-02-02T10:05:36.857Z,2.80
2023-02-02T10:08:09.841Z,3.13
2023-02-02T10:10:44.305Z,2.50
2023-02-02T10:13:16.961Z,2.60
2023-02-02T10:15:51.818Z,1.97
2023-02-02T10:18:25.773Z,1.90
2023-02-02T10:20:58.594Z,3.07
2023-02-02T10:23:29.120Z,2.60
2023-02-02T10:26:02.243Z,3.73
2023-02-02T10:28:43.954Z,3.00
2023-02-02T10:31:19.336Z,1.93
2023-02-02T10:34:02.424Z,3.80
2023-02-02T10:36:41.492Z,2.43
2023-02-02T10:39:18.737Z,2.63
2023-02-02T10:41:57.277Z,1.80
2023-02-02T10:44:34.474Z,2.20
2023-02-02T10:47:05.799Z,3.70
2023-02-02T10:49:35.304Z,2.90
2023-02-02T10:52:14.672Z,2.40
2023-02-02T10:54:57.696Z,2.50
2023-02-02T10:57:39.557Z,2.40
2023-02-02T11:00:16.661Z,2.63
2023-02-02T11:02:44.528Z,3.10
2023-02-02T11:05:40.704Z,1.70
2023-02-02T11:08:18.800Z,2.60
2023-02-02T11:10:48.341Z,2.97
2023-02-02T11:13:23.355Z,3.07
2023-02-02T11:15:50.904Z,2.43
2023-02-02T11:18:30.723Z,2.80
2023-02-02T11:20:58.707Z,2.50
2023-02-02T11:23:29.056Z,3.07
2023-02-02T11:26:02.213Z,2.00
2023-02-02T11:28:35.165Z,2.50
2023-02-02T11:31:02.964Z,3.07
2023-02-02T11:33:33.070Z,2.90
2023-02-02T11:36:03.073Z,2.23
2023-02-02T11:38:32.845Z,3.30
2023-02-02T11:41:03.826Z,2.40
2023-02-02T11:43:34.560Z,1.93
2023-02-02T11:46:04.340Z,2.27
2023-02-02T11:48:35.778Z,2.43
2023-02-02T11:51:05.367Z,2.00
2023-02-02T11:53:36.643Z,1.80
2023-02-02T11:56:08.378Z,3.00
2023-02-02T11:58:45.034Z,2.10
2023-02-02T12:01:25.186Z,1.97
2023-02-02T12:03:54.047Z,2.30
2023-02-02T12:06:23.541Z,1.90
2023-02-02T12:08:56.821Z,1.90
2023-02-02T12:11:45.383Z,2.07
2023-02-02T12:14:27.419Z,2.27
2023-02-02T12:17:11.658Z,2.77
2023-02-02T12:19:56.559Z,1.90
2023-02-02T12:22:48.110Z,1.83
2023-02-02T12:25:37.865Z,3.50
2023-02-02T12:28:18.375Z,1.63
2023-02-02T12:30:56.533Z,1.30
2023-02-02T12:33:35.583Z,1.87
2023-02-02T12:36:16.511Z,2.87
2023-02-02T12:39:01.748Z,2.00
2023-02-02T12:41:41.513Z,2.30
2023-02-02T12:44:15.181Z,2.03
2023-02-02T12:47:00.543Z,2.57
2023-02-02T12:49:42.046Z,2.47
2023-02-02T12:52:20.967Z,2.23
2023-02-02T12:55:13.156Z,2.23
2023-02-02T12:57:51.399Z,2.27
2023-02-02T13:00:55.295Z,3.00
2023-02-02T13:03:31.777Z,1.80
2023-02-02T13:06:21.999Z,2.30
2023-02-02T13:08:55.956Z,2.60
2023-02-02T13:11:36.791Z,2.10
2023-02-02T13:14:12.692Z,2.30
2023-02-02T13:16:48.211Z,3.00
2023-02-02T13:19:25.292Z,2.17
2023-02-02T13:21:57.578Z,1.83
2023-02-02T13:24:28.582Z,4.23
2023-02-02T13:26:59.396Z,2.60
2023-02-02T13:29:43.919Z,1.40
2023-02-02T13:32:24.212Z,2.20
2023-02-02T13:34:58.050Z,2.10
2023-02-02T13:37:32.042Z,3.70
2023-02-02T13:40:02.014Z,4.27
2023-02-02T13:42:38.217Z,2.70
2023-02-02T13:45:26.817Z,3.97
2023-02-02T13:48:09.200Z,4.40
2023-02-02T13:50:46.794Z,3.50
2023-02-02T13:53:35.926Z,2.90
2023-02-02T13:56:27.275Z,2.40
2023-02-02T13:59:14.199Z,2.03
2023-02-02T14:01:49.046Z,1.90
2023-02-02T14:04:23.267Z,1.77
2023-02-02T14:06:57.959Z,2.30
2023-02-02T14:09:28.718Z,3.67
2023-02-02T14:12:00.133Z,2.17
2023-02-02T14:14:35.208Z,2.83
2023-02-02T14:17:07.050Z,2.90
2023-02-02T14:19:57.175Z,3.83
2023-02-02T14:22:43.205Z,4.27
2023-02-02T14:25:44.590Z,3.97
2023-02-02T14:28:13.387Z,2.17
2023-02-02T14:30:41.421Z,2.67
2023-02-02T14:33:27.217Z,2.37
2023-02-02T14:36:06.121Z,2.27
2023-02-02T14:39:00.918Z,2.90
2023-02-02T14:42:02.834Z,2.90
2023-02-02T14:44:30.659Z,2.83
2023-02-02T14:46:59.012Z,2.80
2023-02-02T14:49:35.312Z,2.97
2023-02-02T14:52:05.260Z,2.73
2023-02-02T14:54:38.351Z,3.00
2023-02-02T14:57:22.164Z,2.63
2023-02-02T14:59:50.635Z,3.13
2023-02-02T15:02:21.839Z,3.07
2023-02-02T15:04:50.833Z,2.67
2023-02-02T15:07:38.179Z,3.47
2023-02-02T15:10:09.953Z,3.90
2023-02-02T15:12:41.520Z,3.20
2023-02-02T15:15:20.979Z,4.40
2023-02-02T15:18:01.350Z,3.90
2023-02-02T15:20:33.940Z,3.50
2023-02-02T15:23:04.582Z,5.23
2023-02-02T15:25:35.287Z,7.40
2023-02-02T15:28:12.563Z,11.90
2023-02-02T15:30:44.289Z,14.37
2023-02-02T15:33:24.226Z,4.03
2023-02-02T15:35:54.760Z,5.30
2023-02-02T15:38:34.638Z,7.27
2023-02-02T15:41:07.014Z,7.33
2023-02-02T15:43:35.612Z,4.53
2023-02-02T15:46:08.066Z,4.80
2023-02-02T15:48:36.374Z,4.83
2023-02-02T15:51:08.384Z,2.70
2023-02-02T15:53:49.521Z,3.93
2023-02-02T15:56:29.198Z,3.20
2023-02-02T15:58:58.420Z,3.40
2023-02-02T16:01:28.077Z,4.03
2023-02-02T16:04:06.066Z,4.10
2023-02-02T16:06:36.870Z,4.93
2023-02-02T16:09:05.461Z,6.53
2023-02-02T16:11:33.081Z,5.57
2023-02-02T16:14:03.326Z,4.23
2023-02-02T16:16:32.684Z,5.17
2023-02-02T16:19:06.315Z,3.60
2023-02-02T16:21:37.303Z,3.53
2023-02-02T16:24:08.078Z,4.43
2023-02-02T16:26:36.863Z,3.53
2023-02-02T16:29:05.502Z,3.37
2023-02-02T16:31:33.203Z,3.33
2023-02-02T16:34:02.377Z,4.27
2023-02-02T16:36:30.685Z,4.70
2023-02-02T16:39:01.000Z,6.33
2023-02-02T16:41:32.710Z,4.93
2023-02-02T16:44:38.914Z,4.53
2023-02-02T16:47:08.410Z,4.00
2023-02-02T16:49:37.139Z,3.40
2023-02-02T16:52:10.918Z,3.70
2023-02-02T16:54:42.261Z,4.33
2023-02-02T16:57:19.021Z,2.20
2023-02-02T16:59:50.591Z,2.93
2023-02-02T17:02:25.407Z,2.63
2023-02-02T17:04:57.987Z,2.93
2023-02-02T17:07:26.387Z,3.80
2023-02-02T17:10:22.749Z,3.13
2023-02-02T17:12:50.614Z,3.77
2023-02-02T17:15:42.298Z,4.20
2023-02-02T17:18:10.331Z,3.37
2023-02-02T17:20:40.488Z,2.90
2023-02-02T17:23:10.357Z,3.13
2023-02-02T17:25:43.521Z,2.20
2023-02-02T17:28:14.799Z,3.87
2023-02-02T17:30:43.678Z,3.33
2023-02-02T17:33:14.588Z,2.77
2023-02-02T17:35:53.754Z,3.20
2023-02-02T17:38:22.399Z,1.80
2023-02-02T17:40:52.137Z,3.13
2023-02-02T17:43:19.640Z,2.60
2023-02-02T17:45:47.532Z,3.03
2023-02-02T17:48:15.365Z,2.57
2023-02-02T17:50:43.711Z,4.40
2023-02-02T17:53:13.406Z,2.80
2023-02-02T17:55:42.829Z,2.53
2023-02-02T17:58:14.919Z,2.30
2023-02-02T18:00:43.057Z,3.17
2023-02-02T18:03:14.190Z,4.50
2023-02-02T18:05:43.554Z,3.80
2023-02-02T18:08:12.552Z,4.80
2023-02-02T18:10:40.110Z,4.40
2023-02-02T18:13:07.843Z,4.07
2023-02-02T18:15:36.683Z,3.60
2023-02-02T18:18:04.193Z,3.23
2023-02-02T18:20:31.696Z,4.30
2023-02-02T18:22:59.213Z,2.40
2023-02-02T18:25:27.156Z,2.13
2023-02-02T18:27:57.332Z,2.37
2023-02-02T18:30:25.353Z,4.40
2023-02-02T18:32:54.381Z,2.77
2023-02-02T18:35:22.211Z,3.20
2023-02-02T18:37:49.977Z,2.63
2023-02-02T18:40:18.400Z,3.63
2023-02-02T18:42:46.644Z,2.60
2023-02-02T18:45:14.364Z,2.60
2023-02-02T18:47:41.883Z,2.57
2023-02-02T18:50:11.989Z,2.73
2023-02-02T18:52:40.278Z,2.50
2023-02-02T18:55:08.468Z,3.80
2023-02-02T18:57:36.030Z,2.60
2023-02-02T19:00:04.087Z,2.67
2023-02-02T19:02:31.585Z,3.27
2023-02-02T19:05:16.809Z,3.13
2023-02-02T19:07:58.979Z,3.10
2023-02-02T19:10:31.822Z,4.20
2023-02-02T19:13:11.477Z,4.67
2023-02-02T19:15:41.705Z,3.10
2023-02-02T19:18:14.402Z,3.03
2023-02-02T19:20:42.226Z,3.30
2023-02-02T19:23:14.651Z,3.80
2023-02-02T19:25:45.644Z,4.00
2023-02-02T19:28:21.829Z,3.30
2023-02-02T19:30:50.149Z,3.10
2023-02-02T19:33:18.529Z,4.13
2023-02-02T19:35:49.215Z,3.03
2023-02-02T19:38:20.449Z,4.50
2023-02-02T19:40:48.544Z,5.40
2023-02-02T19:43:24.219Z,4.27
2023-02-02T19:45:51.972Z,4.03
2023-02-02T19:48:21.313Z,3.70
2023-02-02T19:50:49.473Z,4.13
2023-02-02T19:53:21.302Z,2.83
2023-02-02T19:55:48.955Z,2.90
2023-02-02T19:58:23.156Z,2.70
2023-02-02T20:00:52.702Z,2.73
2023-02-02T20:03:22.578Z,3.23
2023-02-02T20:05:52.203Z,3.97
2023-02-02T20:08:27.083Z,3.60
2023-02-02T20:10:56.774Z,3.30
2023-02-02T20:13:26.403Z,3.00
2023-02-02T20:16:03.560Z,3.10
2023-02-02T20:18:41.304Z,3.07
2023-02-02T20:21:19.806Z,2.63
2023-02-02T20:23:49.234Z,2.63
2023-02-02T20:26:23.957Z,2.67
2023-02-02T20:28:53.654Z,2.10
2023-02-02T20:31:26.816Z,3.07
2023-02-02T20:33:57.576Z,2.43
2023-02-02T20:36:32.945Z,2.57
2023-02-02T20:39:22.416Z,2.17
2023-02-02T20:41:54.137Z,2.17
2023-02-02T20:44:22.101Z,2.30
2023-02-02T20:46:50.822Z,2.13
2023-02-02T20:49:29.362Z,2.30
2023-02-02T20:51:59.699Z,2.03
2023-02-02T20:54:29.475Z,2.57
2023-02-02T20:56:57.633Z,2.10
2023-02-02T20:59:25.362Z,2.07
2023-02-02T21:01:53.572Z,1.73
2023-02-02T21:04:22.438Z,1.90
2023-02-02T21:06:50.459Z,1.80
2023-02-02T21:09:19.445Z,3.07
2023-02-02T21:11:48.938Z,2.23
2023-02-02T21:14:16.727Z,2.50
2023-02-02T21:16:44.352Z,2.90
2023-02-02T21:19:11.952Z,2.27
2023-02-02T21:21:39.968Z,2.47
2023-02-02T21:24:07.784Z,2.80
2023-02-02T21:26:35.451Z,2.47
2023-02-02T21:29:04.484Z,2.87
2023-02-02T21:31:35.050Z,2.93
2023-02-02T21:34:03.223Z,2.77
2023-02-02T21:36:34.821Z,2.33
2023-02-02T21:39:21.987Z,2.50
2023-02-02T21:41:50.430Z,2.13
2023-02-02T21:44:21.507Z,2.90
2023-02-02T21:46:51.704Z,2.70
2023-02-02T21:49:23.310Z,2.70
2023-02-02T21:51:51.468Z,2.50
2023-02-02T21:54:22.734Z,2.80
2023-02-02T21:56:50.903Z,3.40
2023-02-02T21:59:21.457Z,2.73
2023-02-02T22:01:50.703Z,3.47
2023-02-02T22:04:24.478Z,3.33
2023-02-02T22:06:53.416Z,3.30
2023-02-02T22:09:24.503Z,3.10
2023-02-02T22:11:55.077Z,3.10
2023-02-02T22:14:32.515Z,3.43
2023-02-02T22:17:00.565Z,3.03
2023-02-02T22:19:38.613Z,3.03
2023-02-02T22:22:17.384Z,3.20
2023-02-02T22:24:46.271Z,2.93
2023-02-02T22:27:22.567Z,4.07
2023-02-02T22:29:57.661Z,2.80
2023-02-02T22:32:25.194Z,3.43
2023-02-02T22:34:52.742Z,3.17
2023-02-02T22:37:20.263Z,3.90
2023-02-02T22:39:47.742Z,3.40
2023-02-02T22:42:15.286Z,3.10
2023-02-02T22:44:44.221Z,3.40
2023-02-02T22:47:13.064Z,3.53
2023-02-02T22:49:40.625Z,3.37
2023-02-02T22:52:08.140Z,4.50
2023-02-02T22:54:35.723Z,4.50
2023-02-02T22:57:03.230Z,5.23
2023-02-02T22:59:30.805Z,5.20
2023-02-02T23:01:58.279Z,5.97
2023-02-02T23:04:27.109Z,7.00
2023-02-02T23:06:54.565Z,5.83
2023-02-02T23:09:22.081Z,6.67
2023-02-02T23:11:49.626Z,8.70
2023-02-02T23:14:17.090Z,6.97
2023-02-02T23:16:44.582Z,7.93
2023-02-02T23:19:12.131Z,8.60
2023-02-02T23:21:41.103Z,8.80
2023-02-02T23:24:09.557Z,9.97
2023-02-02T23:26:37.169Z,10.03
2023-02-02T23:29:04.744Z,8.30
2023-02-02T23:31:32.416Z,10.93
2023-02-02T23:34:00.156Z,8.77
2023-02-02T23:36:28.995Z,9.53
2023-02-02T23:38:58.061Z,11.63
2023-02-02T23:41:25.521Z,8.10
2023-02-02T23:43:53.507Z,9.67
2023-02-02T23:46:21.383Z,9.90
2023-02-02T23:48:49.155Z,10.10
2023-02-02T23:51:19.526Z,10.87
2023-02-02T23:53:47.893Z,12.97
2023-02-02T23:56:17.277Z,11.93
2023-02-02T23:58:44.969Z,11.90
